Suncadia, Washington
Current Conditions -  °F | °C
As of 6:53 AM on Thursday 25 Dec 2014 (Local Time) from KELN Reporting Station
Clear Clear  
Wind Chill: 28°   Ceiling: Unl
Heat Index: 35°   Visibility: 10mi
Dew Point: 26°   Wind: 9mph
Humidity: 70%   Direction: 330°NNW
Pressure: 30.02"   Gusts: NA
Location:  47.3367°N, 121.023°W
Report Text: KELN 251453Z AUTO 33008KT 10SM CLR 02/M03 A3002 RMK AO2 SLP177 T00171033 51013
Loading
Personal Weather Stations






























Interactive Weather Map New forecast layout! Learn more

10-Day Weather Forecast

Advertisements
Track Severe Weather on mobile